メインページ
METAR-TAF:

METAR-TAF

空港 :

バンダレ・アッバース国際空港

バンダレ・アッバース, イラン

緯度: 27-13N, 経度: 056-22E, 海抜: 10m

現時点の気象観測

当レポートは48分前の17:30(UTC)に作成
の風 4kt
気温 17°C
湿度 59%
気圧 1019 hPa
視程10km以上
1,500メートル以下は雲なし、積乱雲なし

METAR: OIKB 171730Z 36004KT CAVOK 17/09 Q1018 A3008

時間: 21:48 (18:18 UTC)

予報

当レポートは6時間48分前の11:30(UTC)に作成
予報は17日の 12時(UTC)から 18日の 18時(UTC)まで有効
南東の風 6kt
視程: 6000m
高度4000ftの雲はほとんどない
高度10000ftの雲は散在している
17日の 12時(UTC)から 17日の 18時(UTC)まで一時的に
南東の風 14kt
高度3500ftの雲はほとんどない, 塔状積雲.
高度4000ftの雲は散在している
高度10000ftの千切れ雲あり
18日の 06時(UTC)から 18日の 18時(UTC)まで一時的に
南東の風 16kt
高度3500ftの雲はほとんどない, 積乱雲.
高度4000ftの雲は散在している
高度10000ftの千切れ雲あり

TAF: OIKB 171130Z 1712/1818 14006KT 6000 FEW040 SCT100 TEMPO 1712/1718 14014KT FEW035TCU SCT040 BKN100 TEMPO 1806/1818 14016KT FEW035CB SCT040 BKN100

4,000以上の空港の気象観測と天気予報(METAR報とTAF報)

利用可能な観測所は地図上に黄色い丸と赤い丸で示す。

丸の上にカーソルを重ねると観測所名を参照できる。

次にクリックすると気象観測と天気予報を参照できる。

マップの切り替え:黒色「×」印の緑ボタンをクリックして拡大、「-」印の緑ボタンをクリックして縮小、緑色の三角印をクリックして隣りの地図に切り替え


METAR-TAF: